createdAt,value
2018-12-25T00:00:18.800Z,4.47
2018-12-25T00:02:51.959Z,4.40
2018-12-25T00:05:23.145Z,4.63
2018-12-25T00:07:54.476Z,5.40
2018-12-25T00:10:25.862Z,5.50
2018-12-25T00:12:56.915Z,5.30
2018-12-25T00:15:28.455Z,4.97
2018-12-25T00:17:59.507Z,4.93
2018-12-25T00:20:30.378Z,5.50
2018-12-25T00:23:01.627Z,5.77
2018-12-25T00:25:32.712Z,5.87
2018-12-25T00:28:04.460Z,6.00
2018-12-25T00:30:35.498Z,6.00
2018-12-25T00:33:06.852Z,5.50
2018-12-25T00:35:38.693Z,5.73
2018-12-25T00:38:10.053Z,5.57
2018-12-25T00:40:41.231Z,5.60
2018-12-25T00:43:12.563Z,5.27
2018-12-25T00:45:44.130Z,5.43
2018-12-25T00:48:15.151Z,4.93
2018-12-25T00:50:46.645Z,5.23
2018-12-25T00:53:17.855Z,4.93
2018-12-25T00:55:49.395Z,5.30
2018-12-25T00:58:21.157Z,5.10
2018-12-25T01:00:52.309Z,5.30
2018-12-25T01:03:23.755Z,5.70
2018-12-25T01:05:54.918Z,5.10
2018-12-25T01:08:26.322Z,4.63
2018-12-25T01:10:58.319Z,4.33
2018-12-25T01:13:32.220Z,5.00
2018-12-25T01:16:03.067Z,4.20
2018-12-25T01:18:33.860Z,4.53
2018-12-25T01:21:04.987Z,4.40
2018-12-25T01:23:35.985Z,4.70
2018-12-25T01:26:07.057Z,4.33
2018-12-25T01:28:37.880Z,3.83
2018-12-25T01:31:09.744Z,3.90
2018-12-25T01:33:40.761Z,4.33
2018-12-25T01:36:12.485Z,4.70
2018-12-25T01:38:43.543Z,4.60
2018-12-25T01:41:14.764Z,4.70
2018-12-25T01:43:45.817Z,4.67
2018-12-25T01:46:16.800Z,4.00
2018-12-25T01:48:47.543Z,4.03
2018-12-25T01:51:18.378Z,3.90
2018-12-25T01:53:50.078Z,3.37
2018-12-25T01:56:21.003Z,3.67
2018-12-25T01:58:51.999Z,3.97
2018-12-25T02:01:23.627Z,4.23
2018-12-25T02:03:55.012Z,4.50
2018-12-25T02:06:26.198Z,4.30
2018-12-25T02:08:57.190Z,4.43
2018-12-25T02:11:28.236Z,4.40
2018-12-25T02:13:59.237Z,3.97
2018-12-25T02:16:30.325Z,3.77
2018-12-25T02:19:01.352Z,3.67
2018-12-25T02:21:32.284Z,3.70
2018-12-25T02:24:03.343Z,3.60
2018-12-25T02:26:34.994Z,3.17
2018-12-25T02:29:06.369Z,3.03
2018-12-25T02:31:38.159Z,3.40
2018-12-25T02:34:11.019Z,3.67
2018-12-25T02:36:42.102Z,3.40
2018-12-25T02:39:13.180Z,3.60
2018-12-25T02:41:44.525Z,4.20
2018-12-25T02:44:15.882Z,3.90
2018-12-25T02:46:46.823Z,3.83
2018-12-25T02:49:18.414Z,4.00
2018-12-25T02:51:49.554Z,3.77
2018-12-25T02:54:20.764Z,4.03
2018-12-25T02:56:52.122Z,4.10
2018-12-25T02:59:23.956Z,3.90
2018-12-25T03:01:55.071Z,3.60
2018-12-25T03:04:26.476Z,3.80
2018-12-25T03:06:57.718Z,3.67
2018-12-25T03:09:29.158Z,4.10
2018-12-25T03:12:00.208Z,3.87
2018-12-25T03:14:31.368Z,3.50
2018-12-25T03:17:02.331Z,3.80
2018-12-25T03:19:33.586Z,3.70
2018-12-25T03:22:04.496Z,4.00
2018-12-25T03:24:35.574Z,4.17
2018-12-25T03:27:07.075Z,3.77
2018-12-25T03:29:37.828Z,4.17
2018-12-25T03:32:08.712Z,4.00
2018-12-25T03:34:40.108Z,3.80
2018-12-25T03:37:11.646Z,4.43
2018-12-25T03:39:42.538Z,4.33
2018-12-25T03:42:14.338Z,5.00
2018-12-25T03:44:45.402Z,4.80
2018-12-25T03:47:16.391Z,5.00
2018-12-25T03:49:47.439Z,4.80
2018-12-25T03:52:19.013Z,4.27
2018-12-25T03:54:50.098Z,3.60
2018-12-25T03:57:21.533Z,4.40
2018-12-25T03:59:52.809Z,3.90
2018-12-25T04:02:23.623Z,4.50
2018-12-25T04:04:54.917Z,4.17
2018-12-25T04:07:26.247Z,4.70
2018-12-25T04:09:57.456Z,5.00
2018-12-25T04:12:28.888Z,5.00
2018-12-25T04:14:59.623Z,4.50
2018-12-25T04:17:31.110Z,4.17
2018-12-25T04:20:02.404Z,4.07
2018-12-25T04:22:33.772Z,4.60
2018-12-25T04:25:05.188Z,4.77
2018-12-25T04:27:36.700Z,4.67
2018-12-25T04:30:07.517Z,4.37
2018-12-25T04:32:38.445Z,4.30
2018-12-25T04:35:10.136Z,4.40
2018-12-25T04:37:41.447Z,4.80
2018-12-25T04:40:12.255Z,4.50
2018-12-25T04:42:43.510Z,4.13
2018-12-25T04:45:14.478Z,4.50
2018-12-25T04:47:45.476Z,4.10
2018-12-25T04:50:16.724Z,4.73
2018-12-25T04:52:47.744Z,4.70
2018-12-25T04:55:18.918Z,4.97
2018-12-25T04:57:51.763Z,5.40
2018-12-25T05:00:22.920Z,5.57
2018-12-25T05:02:53.836Z,4.70
2018-12-25T05:05:24.894Z,4.83
2018-12-25T05:07:55.651Z,4.70
2018-12-25T05:10:26.623Z,4.90
2018-12-25T05:12:57.607Z,5.50
2018-12-25T05:15:28.843Z,5.50
2018-12-25T05:17:59.605Z,5.73
2018-12-25T05:20:37.825Z,5.37
2018-12-25T05:23:03.390Z,5.30
2018-12-25T05:25:34.383Z,5.10
2018-12-25T05:28:05.690Z,6.00
2018-12-25T05:30:36.735Z,5.50
2018-12-25T05:33:07.989Z,5.27
2018-12-25T05:35:38.804Z,5.10
2018-12-25T05:38:09.607Z,5.43
2018-12-25T05:40:40.578Z,5.77
2018-12-25T05:43:11.918Z,5.10
2018-12-25T05:45:43.201Z,5.23
2018-12-25T05:48:14.430Z,5.40
2018-12-25T05:50:46.751Z,5.97
2018-12-25T05:53:18.171Z,5.47
2018-12-25T05:55:49.804Z,5.37
2018-12-25T05:58:20.785Z,6.10
2018-12-25T06:00:51.889Z,6.17
2018-12-25T06:03:23.081Z,6.43
2018-12-25T06:05:54.478Z,6.20
2018-12-25T06:08:25.465Z,6.37
2018-12-25T06:10:56.525Z,6.47
2018-12-25T06:13:27.790Z,7.67
2018-12-25T06:15:59.305Z,8.17
2018-12-25T06:18:31.575Z,8.73
2018-12-25T06:21:02.568Z,6.97
2018-12-25T06:23:33.569Z,7.17
2018-12-25T06:26:04.304Z,6.53
2018-12-25T06:28:35.316Z,6.57
2018-12-25T06:31:06.626Z,7.07
2018-12-25T06:33:37.837Z,6.50
2018-12-25T06:36:09.263Z,6.43
2018-12-25T06:38:40.045Z,6.33
2018-12-25T06:41:11.078Z,6.40
2018-12-25T06:43:42.088Z,6.07
2018-12-25T06:46:13.140Z,6.60
2018-12-25T06:48:44.757Z,7.00
2018-12-25T06:51:15.743Z,7.20
2018-12-25T06:53:46.993Z,6.60
2018-12-25T06:56:18.323Z,7.00
2018-12-25T06:58:49.095Z,7.93
2018-12-25T07:01:20.172Z,7.07
2018-12-25T07:03:51.755Z,8.27
2018-12-25T07:06:22.896Z,8.30
2018-12-25T07:08:53.735Z,8.43
2018-12-25T07:11:24.982Z,7.63
2018-12-25T07:13:55.966Z,7.77
2018-12-25T07:16:27.258Z,8.00
2018-12-25T07:18:58.271Z,7.60
2018-12-25T07:21:29.599Z,7.23
2018-12-25T07:24:00.850Z,7.43
2018-12-25T07:26:31.889Z,6.73
2018-12-25T07:29:02.962Z,7.50
2018-12-25T07:31:34.298Z,7.47
2018-12-25T07:34:05.095Z,7.43
2018-12-25T07:36:37.103Z,7.67
2018-12-25T07:39:07.986Z,7.77
2018-12-25T07:41:39.431Z,7.43
2018-12-25T07:44:10.537Z,7.53
2018-12-25T07:46:41.730Z,7.43
2018-12-25T07:49:13.006Z,7.77
2018-12-25T07:51:43.823Z,7.77
2018-12-25T07:54:14.592Z,9.27
2018-12-25T07:56:45.701Z,10.83
2018-12-25T07:59:16.981Z,11.10
2018-12-25T08:01:48.332Z,12.40
2018-12-25T08:04:19.353Z,9.33
2018-12-25T08:06:50.586Z,10.20
2018-12-25T08:09:21.654Z,9.87
2018-12-25T08:11:53.716Z,10.13
2018-12-25T08:14:24.853Z,9.90
2018-12-25T08:16:55.846Z,11.27
2018-12-25T08:19:27.010Z,9.47
2018-12-25T08:21:58.235Z,9.10
2018-12-25T08:24:30.063Z,10.90
2018-12-25T08:27:01.482Z,9.63
2018-12-25T08:29:32.912Z,9.50
2018-12-25T08:32:03.755Z,11.00
2018-12-25T08:34:35.078Z,11.13
2018-12-25T08:37:06.115Z,9.20
2018-12-25T08:39:37.323Z,9.57
2018-12-25T08:42:08.290Z,9.50
2018-12-25T08:44:39.330Z,9.53
2018-12-25T08:47:11.609Z,8.93
2018-12-25T08:49:42.961Z,8.57
2018-12-25T08:52:14.479Z,8.43
2018-12-25T08:54:45.471Z,8.27
2018-12-25T08:57:17.160Z,8.30
2018-12-25T08:59:48.170Z,7.63
2018-12-25T09:02:19.242Z,8.33
2018-12-25T09:04:50.891Z,9.57
2018-12-25T09:07:22.039Z,9.63
2018-12-25T09:09:53.790Z,9.17
2018-12-25T09:12:24.943Z,10.27
2018-12-25T09:14:56.591Z,10.20
2018-12-25T09:17:27.463Z,9.57
2018-12-25T09:19:58.286Z,9.83
2018-12-25T09:22:29.411Z,10.60
2018-12-25T09:25:00.759Z,12.80
2018-12-25T09:27:32.272Z,15.10
2018-12-25T09:30:03.379Z,13.93
2018-12-25T09:32:34.627Z,11.47
2018-12-25T09:35:05.711Z,12.70
2018-12-25T09:37:36.460Z,13.07
2018-12-25T09:40:07.892Z,16.03
2018-12-25T09:42:39.298Z,15.03
2018-12-25T09:45:10.075Z,17.83
2018-12-25T09:47:41.222Z,34.97
2018-12-25T09:50:12.295Z,37.73
2018-12-25T09:52:43.600Z,43.33
2018-12-25T09:55:14.446Z,50.17
2018-12-25T09:57:45.429Z,29.13
2018-12-25T10:00:17.497Z,18.40
2018-12-25T10:02:48.766Z,14.97
2018-12-25T10:05:19.794Z,14.30
2018-12-25T10:07:50.905Z,16.00
2018-12-25T10:10:22.169Z,16.60
2018-12-25T10:12:53.191Z,16.33
2018-12-25T10:15:23.966Z,14.87
2018-12-25T10:17:54.990Z,16.53
2018-12-25T10:20:28.200Z,21.33
2018-12-25T10:22:59.336Z,20.97
2018-12-25T10:25:30.411Z,20.80
2018-12-25T10:28:01.393Z,19.43
2018-12-25T10:30:32.227Z,17.20
2018-12-25T10:33:03.450Z,14.73
2018-12-25T10:35:34.730Z,13.10
2018-12-25T10:38:05.470Z,11.70
2018-12-25T10:40:36.472Z,32.47
2018-12-25T10:43:07.939Z,27.27
2018-12-25T10:45:40.031Z,18.83
2018-12-25T10:48:11.332Z,84.37
2018-12-25T10:50:43.114Z,32.90
2018-12-25T10:53:14.089Z,15.60
2018-12-25T10:55:45.347Z,19.40
2018-12-25T10:58:16.638Z,12.40
2018-12-25T11:00:51.050Z,16.70
2018-12-25T11:03:22.696Z,11.40
2018-12-25T11:05:54.039Z,11.10
2018-12-25T11:08:26.282Z,11.00
2018-12-25T11:10:58.155Z,8.53
2018-12-25T11:13:29.126Z,9.27
2018-12-25T11:16:00.282Z,9.50
2018-12-25T11:18:31.106Z,10.03
2018-12-25T11:21:02.783Z,10.33
2018-12-25T11:23:34.281Z,9.87
2018-12-25T11:26:05.068Z,10.70
2018-12-25T11:28:36.189Z,10.10
2018-12-25T11:31:08.360Z,9.47
2018-12-25T11:33:39.294Z,9.53
2018-12-25T11:36:10.624Z,10.17
2018-12-25T11:38:42.063Z,10.43
2018-12-25T11:41:13.423Z,10.37
2018-12-25T11:43:44.466Z,9.23
2018-12-25T11:46:15.241Z,10.07
2018-12-25T11:48:46.263Z,10.13
2018-12-25T11:51:17.013Z,9.70
2018-12-25T11:53:47.937Z,9.70
2018-12-25T11:56:19.615Z,10.30
2018-12-25T11:58:51.228Z,12.13
2018-12-25T12:01:22.882Z,10.70
2018-12-25T12:03:54.039Z,10.60
2018-12-25T12:06:24.890Z,10.80
2018-12-25T12:08:55.900Z,9.97
2018-12-25T12:11:27.183Z,9.73
2018-12-25T12:13:58.409Z,9.27
2018-12-25T12:16:30.178Z,9.10
2018-12-25T12:19:01.118Z,8.53
2018-12-25T12:21:32.962Z,9.73
2018-12-25T12:24:03.794Z,10.40
2018-12-25T12:26:35.045Z,8.87
2018-12-25T12:29:06.389Z,9.50
2018-12-25T12:31:37.240Z,8.40
2018-12-25T12:34:08.030Z,8.70
2018-12-25T12:36:39.226Z,8.53
2018-12-25T12:39:10.363Z,8.80
2018-12-25T12:41:41.454Z,8.50
2018-12-25T12:44:12.765Z,11.43
2018-12-25T12:46:44.118Z,11.60
2018-12-25T12:49:15.127Z,9.60
2018-12-25T12:51:46.132Z,8.50
2018-12-25T12:54:18.056Z,7.57
2018-12-25T12:56:49.228Z,6.83
2018-12-25T12:59:20.287Z,6.63
2018-12-25T13:01:51.709Z,6.80
2018-12-25T13:04:23.239Z,10.57
2018-12-25T13:06:54.572Z,9.77
2018-12-25T13:09:25.836Z,10.50
2018-12-25T13:11:56.861Z,10.70
2018-12-25T13:14:28.172Z,11.40
2018-12-25T13:16:59.243Z,12.10
2018-12-25T13:19:30.390Z,11.07
2018-12-25T13:22:01.703Z,11.97
2018-12-25T13:24:32.463Z,12.30
2018-12-25T13:27:03.612Z,11.80
2018-12-25T13:29:34.679Z,13.10
2018-12-25T13:32:05.818Z,13.03
2018-12-25T13:34:37.576Z,13.80
2018-12-25T13:37:08.360Z,14.67
2018-12-25T13:39:39.622Z,13.53
2018-12-25T13:42:10.627Z,12.97
2018-12-25T13:44:41.959Z,13.57
2018-12-25T13:47:12.973Z,14.13
2018-12-25T13:49:44.292Z,14.80
2018-12-25T13:52:15.405Z,12.73
2018-12-25T13:54:46.752Z,13.40
2018-12-25T13:57:17.834Z,12.60
2018-12-25T13:59:49.124Z,13.10
2018-12-25T14:02:19.906Z,13.57
2018-12-25T14:04:50.910Z,13.30
2018-12-25T14:07:22.155Z,14.37
2018-12-25T14:09:53.231Z,12.67
2018-12-25T14:12:24.590Z,12.77
2018-12-25T14:14:55.339Z,13.33
2018-12-25T14:17:26.637Z,18.27
2018-12-25T14:19:57.482Z,17.63
2018-12-25T14:22:28.599Z,19.60
2018-12-25T14:24:59.890Z,20.00
2018-12-25T14:27:30.714Z,20.13
2018-12-25T14:30:02.086Z,16.97
2018-12-25T14:32:33.312Z,16.57
2018-12-25T14:35:04.644Z,19.30
2018-12-25T14:37:35.437Z,17.10
2018-12-25T14:40:06.723Z,12.80
2018-12-25T14:42:38.270Z,12.83
2018-12-25T14:45:09.112Z,12.93
2018-12-25T14:47:40.356Z,19.90
2018-12-25T14:50:11.167Z,15.97
2018-12-25T14:52:42.212Z,15.33
2018-12-25T14:55:13.276Z,13.23
2018-12-25T14:57:44.259Z,12.00
2018-12-25T15:00:15.250Z,14.87
2018-12-25T15:02:46.067Z,14.97
2018-12-25T15:05:17.193Z,13.70
2018-12-25T15:07:48.272Z,14.43
2018-12-25T15:10:19.534Z,53.20
2018-12-25T15:12:50.595Z,23.63
2018-12-25T15:15:21.657Z,19.43
2018-12-25T15:17:52.702Z,24.67
2018-12-25T15:20:23.771Z,21.10
2018-12-25T15:22:54.755Z,19.50
2018-12-25T15:25:25.783Z,28.23
2018-12-25T15:27:57.036Z,21.17
2018-12-25T15:30:27.937Z,16.70
2018-12-25T15:32:59.642Z,9.90
2018-12-25T15:35:30.474Z,9.97
2018-12-25T15:38:02.128Z,10.10
2018-12-25T15:40:33.136Z,10.30
2018-12-25T15:43:03.894Z,9.93
2018-12-25T15:45:34.918Z,7.50
2018-12-25T15:48:05.956Z,7.33
2018-12-25T15:50:37.034Z,6.60
2018-12-25T15:56:15.437Z,6.93
2018-12-25T15:59:12.184Z,6.27
2018-12-25T16:01:42.926Z,6.40
2018-12-25T16:04:13.749Z,6.20
2018-12-25T16:06:45.057Z,5.97
2018-12-25T16:09:16.309Z,5.77
2018-12-25T16:11:47.511Z,6.00
2018-12-25T16:14:18.826Z,5.90
2018-12-25T16:16:49.912Z,50.20
2018-12-25T16:19:20.902Z,17.60
2018-12-25T16:21:51.978Z,7.97
2018-12-25T16:24:27.481Z,7.73
2018-12-25T16:26:55.499Z,7.50
2018-12-25T16:29:26.977Z,7.30
2018-12-25T16:31:58.223Z,7.63
2018-12-25T16:34:28.989Z,7.93
2018-12-25T16:37:00.318Z,9.33
2018-12-25T16:39:31.410Z,7.50
2018-12-25T16:42:02.800Z,6.80
2018-12-25T16:44:33.869Z,6.30
2018-12-25T16:47:04.829Z,5.53
2018-12-25T16:49:35.588Z,6.80
2018-12-25T16:52:06.622Z,7.37
2018-12-25T16:54:37.870Z,8.40
2018-12-25T16:57:11.049Z,8.90
2018-12-25T16:59:41.896Z,7.33
2018-12-25T17:02:12.934Z,8.50
2018-12-25T17:04:44.069Z,8.73
2018-12-25T17:07:14.961Z,8.13
2018-12-25T17:09:45.950Z,8.37
2018-12-25T17:12:16.909Z,8.87
2018-12-25T17:14:47.988Z,8.33
2018-12-25T17:17:18.987Z,8.10
2018-12-25T17:19:49.757Z,7.90
2018-12-25T17:22:20.799Z,7.47
2018-12-25T17:24:52.073Z,9.90
2018-12-25T17:27:23.353Z,7.90
2018-12-25T17:29:54.558Z,8.57
2018-12-25T17:32:25.519Z,8.03
2018-12-25T17:34:56.573Z,7.83
2018-12-25T17:37:29.506Z,9.93
2018-12-25T17:40:00.774Z,9.43
2018-12-25T17:42:31.594Z,9.43
2018-12-25T17:45:02.879Z,9.57
2018-12-25T17:47:34.408Z,8.90
2018-12-25T17:50:06.094Z,9.53
2018-12-25T17:52:37.105Z,8.80
2018-12-25T17:55:07.937Z,8.53
2018-12-25T17:57:39.043Z,8.70
2018-12-25T18:00:10.078Z,9.37
2018-12-25T18:02:41.874Z,21.67
2018-12-25T18:05:13.006Z,14.37
2018-12-25T18:07:44.061Z,13.77
2018-12-25T18:10:15.319Z,13.57
2018-12-25T18:12:46.955Z,11.00
2018-12-25T18:15:17.946Z,9.90
2018-12-25T18:17:49.434Z,10.47
2018-12-25T18:20:20.494Z,10.50
2018-12-25T18:22:51.777Z,10.10
2018-12-25T18:25:22.605Z,10.70
2018-12-25T18:27:53.433Z,10.47
2018-12-25T18:30:24.183Z,10.10
2018-12-25T18:32:57.233Z,12.67
2018-12-25T18:35:27.880Z,10.93
2018-12-25T18:37:59.123Z,11.07
2018-12-25T18:40:29.920Z,11.43
2018-12-25T18:43:01.080Z,8.33
2018-12-25T18:45:31.766Z,7.00
2018-12-25T18:48:03.158Z,7.47
2018-12-25T18:50:33.907Z,9.63
2018-12-25T18:53:04.746Z,10.50
2018-12-25T18:55:36.237Z,10.70
2018-12-25T18:58:07.362Z,9.80
2018-12-25T19:00:38.148Z,11.10
2018-12-25T19:03:09.237Z,11.07
2018-12-25T19:05:40.545Z,10.87
2018-12-25T19:08:11.246Z,10.97
2018-12-25T19:10:42.219Z,13.23
2018-12-25T19:13:13.544Z,12.37
2018-12-25T19:15:46.558Z,8.97
2018-12-25T19:18:17.351Z,9.03
2018-12-25T19:20:48.494Z,7.03
2018-12-25T19:23:19.544Z,6.50
2018-12-25T19:25:50.587Z,6.00
2018-12-25T19:28:21.862Z,6.20
2018-12-25T19:30:52.847Z,5.37
2018-12-25T19:33:24.191Z,5.30
2018-12-25T19:35:55.197Z,4.87
2018-12-25T19:38:26.309Z,5.50
2018-12-25T19:40:57.352Z,6.70
2018-12-25T19:43:28.473Z,6.03
2018-12-25T19:45:59.501Z,5.83
2018-12-25T19:48:30.488Z,5.10
2018-12-25T19:51:01.791Z,4.93
2018-12-25T19:53:32.836Z,5.47
2018-12-25T19:56:03.717Z,5.90
2018-12-25T19:58:35.262Z,6.00
2018-12-25T20:01:06.074Z,4.60
2018-12-25T20:03:51.522Z,4.10
2018-12-25T20:06:50.706Z,4.00
2018-12-25T20:10:10.756Z,3.97
2018-12-25T20:13:18.451Z,4.90
2018-12-25T20:16:36.660Z,5.03
2018-12-25T20:19:30.029Z,5.40
2018-12-25T20:22:40.738Z,5.00
2018-12-25T20:26:03.389Z,4.63
2018-12-25T20:29:02.436Z,5.47
2018-12-25T20:31:55.603Z,5.60
2018-12-25T20:35:10.497Z,5.00
2018-12-25T20:38:21.565Z,4.37
2018-12-25T20:41:17.425Z,5.17
2018-12-25T20:44:23.912Z,5.03
2018-12-25T20:47:37.949Z,5.13
2018-12-25T20:50:59.078Z,5.60
2018-12-25T20:54:03.086Z,5.40
2018-12-25T20:57:07.479Z,5.73
2018-12-25T21:00:17.426Z,5.73
2018-12-25T21:03:28.883Z,5.33
2018-12-25T21:06:59.054Z,5.13
2018-12-25T21:10:12.882Z,5.10
2018-12-25T21:13:37.358Z,4.60
2018-12-25T21:16:35.550Z,5.57
2018-12-25T21:19:30.870Z,5.70
2018-12-25T21:22:37.359Z,4.97
2018-12-25T21:25:44.180Z,5.40
2018-12-25T21:28:14.005Z,5.80
2018-12-25T21:30:45.178Z,3.53
2018-12-25T21:33:17.453Z,3.90
2018-12-25T21:35:48.806Z,3.87
2018-12-25T21:38:19.733Z,4.50
2018-12-25T21:41:22.172Z,3.67
2018-12-25T21:43:53.576Z,3.70
2018-12-25T21:46:26.343Z,5.03
2018-12-25T21:48:57.583Z,6.00
2018-12-25T21:54:29.621Z,4.47
2018-12-25T21:57:20.201Z,5.00
2018-12-25T22:00:12.629Z,6.60
2018-12-25T22:02:43.728Z,6.50
2018-12-25T22:05:14.962Z,5.63
2018-12-25T22:07:46.213Z,5.20
2018-12-25T22:10:17.790Z,5.63
2018-12-25T22:12:48.771Z,5.30
2018-12-25T22:15:19.559Z,5.73
2018-12-25T22:17:50.571Z,6.17
2018-12-25T22:20:27.633Z,5.80
2018-12-25T22:22:58.666Z,5.20
2018-12-25T22:25:29.871Z,4.70
2018-12-25T22:28:00.834Z,4.23
2018-12-25T22:30:31.939Z,4.00
2018-12-25T22:33:03.296Z,4.60
2018-12-25T22:35:34.540Z,4.80
2018-12-25T22:38:05.694Z,4.63
2018-12-25T22:40:36.760Z,3.80
2018-12-25T22:43:07.737Z,4.23
2018-12-25T22:45:39.055Z,4.00
2018-12-25T22:48:10.438Z,4.57
2018-12-25T22:50:41.498Z,5.03
2018-12-25T22:53:12.434Z,4.50
2018-12-25T22:55:43.423Z,4.97
2018-12-25T22:58:14.733Z,4.90
2018-12-25T23:00:45.993Z,4.80
2018-12-25T23:03:23.609Z,5.10
2018-12-25T23:05:54.358Z,5.17
2018-12-25T23:08:25.096Z,4.43
2018-12-25T23:10:56.333Z,4.23
2018-12-25T23:13:27.555Z,4.17
2018-12-25T23:15:58.302Z,5.07
2018-12-25T23:18:29.278Z,4.70
2018-12-25T23:21:00.358Z,4.50
2018-12-25T23:23:31.087Z,4.63
2018-12-25T23:26:02.217Z,4.63
2018-12-25T23:28:33.560Z,4.70
2018-12-25T23:31:04.874Z,5.13
2018-12-25T23:33:35.947Z,5.93
2018-12-25T23:36:06.681Z,5.57
2018-12-25T23:38:37.732Z,5.50
2018-12-25T23:41:08.478Z,5.03
2018-12-25T23:43:39.453Z,5.03
2018-12-25T23:46:10.445Z,5.47
2018-12-25T23:48:41.709Z,7.40
2018-12-25T23:51:12.578Z,6.83
2018-12-25T23:53:43.617Z,6.83
2018-12-25T23:56:14.867Z,6.80
2018-12-25T23:58:45.955Z,7.43
